createdAt,value
2019-03-25T00:01:55.548Z,101.92
2019-03-25T00:04:21.711Z,96.92
2019-03-25T00:06:47.875Z,102.20
2019-03-25T00:09:14.027Z,99.77
2019-03-25T00:11:40.395Z,97.75
2019-03-25T00:14:06.582Z,93.25
2019-03-25T00:16:32.744Z,103.05
2019-03-25T00:18:58.963Z,99.25
2019-03-25T00:21:25.170Z,100.92
2019-03-25T00:23:51.922Z,97.33
2019-03-25T00:26:18.104Z,95.07
2019-03-25T00:28:44.264Z,104.23
2019-03-25T00:31:10.464Z,103.35
2019-03-25T00:33:36.621Z,107.15
2019-03-25T00:36:02.780Z,105.30
2019-03-25T00:38:28.989Z,102.58
2019-03-25T00:40:55.148Z,112.03
2019-03-25T00:43:21.323Z,105.90
2019-03-25T00:45:47.472Z,103.95
2019-03-25T00:48:13.640Z,102.02
2019-03-25T00:50:39.800Z,109.78
2019-03-25T00:53:05.999Z,102.80
2019-03-25T00:55:32.267Z,108.80
2019-03-25T00:57:58.443Z,114.80
2019-03-25T01:00:24.708Z,102.65
2019-03-25T01:02:50.896Z,105.43
2019-03-25T01:05:17.448Z,109.37
2019-03-25T01:07:43.596Z,101.75
2019-03-25T01:10:09.997Z,107.37
2019-03-25T01:12:36.159Z,115.50
2019-03-25T01:15:04.816Z,107.58
2019-03-25T01:17:31.121Z,108.78
2019-03-25T01:19:57.281Z,111.83
2019-03-25T01:22:23.441Z,114.95
2019-03-25T01:25:00.979Z,110.37
2019-03-25T01:27:17.712Z,97.70
2019-03-25T01:29:43.959Z,100.53
2019-03-25T01:32:10.161Z,103.58
2019-03-25T01:34:36.317Z,103.25
2019-03-25T01:37:02.917Z,107.00
2019-03-25T01:39:32.656Z,99.72
2019-03-25T01:42:00.589Z,97.27
2019-03-25T01:44:26.759Z,107.67
2019-03-25T01:46:52.940Z,96.78
2019-03-25T01:49:19.132Z,93.35
2019-03-25T01:51:45.308Z,94.07
2019-03-25T01:54:11.471Z,101.25
2019-03-25T01:56:37.668Z,97.02
2019-03-25T01:59:03.820Z,96.15
2019-03-25T02:01:30.191Z,98.62
2019-03-25T02:03:56.469Z,97.47
2019-03-25T02:06:22.633Z,92.00
2019-03-25T02:08:48.831Z,98.00
2019-03-25T02:11:14.989Z,98.87
2019-03-25T02:13:41.184Z,99.77
2019-03-25T02:16:07.330Z,105.72
2019-03-25T02:18:33.512Z,100.90
2019-03-25T02:20:59.701Z,101.22
2019-03-25T02:23:25.900Z,103.50
2019-03-25T02:25:52.190Z,93.70
2019-03-25T02:28:18.361Z,105.35
2019-03-25T02:30:44.621Z,101.15
2019-03-25T02:33:10.815Z,108.12
2019-03-25T02:35:36.985Z,101.35
2019-03-25T02:38:03.153Z,101.95
2019-03-25T02:40:29.324Z,98.17
2019-03-25T02:42:55.517Z,99.40
2019-03-25T02:45:21.715Z,100.97
2019-03-25T02:47:47.868Z,97.30
2019-03-25T02:50:14.141Z,109.22
2019-03-25T02:52:40.298Z,103.42
2019-03-25T02:55:06.988Z,106.60
2019-03-25T02:57:33.150Z,105.63
2019-03-25T02:59:59.344Z,106.70
2019-03-25T03:02:25.504Z,108.22
2019-03-25T03:04:51.668Z,107.27
2019-03-25T03:07:17.966Z,105.55
2019-03-25T03:09:44.122Z,115.88
2019-03-25T03:12:10.347Z,107.47
2019-03-25T03:14:36.504Z,107.92
2019-03-25T03:17:02.822Z,106.10
2019-03-25T03:19:28.980Z,100.75
2019-03-25T03:21:55.166Z,115.10
2019-03-25T03:24:21.317Z,121.05
2019-03-25T03:26:47.486Z,114.50
2019-03-25T03:29:13.765Z,122.40
2019-03-25T03:31:39.990Z,126.07
2019-03-25T03:34:06.196Z,126.47
2019-03-25T03:36:32.365Z,135.82
2019-03-25T03:38:58.533Z,120.55
2019-03-25T03:41:25.005Z,112.20
2019-03-25T03:43:51.197Z,117.72
2019-03-25T03:46:17.435Z,121.33
2019-03-25T03:48:43.616Z,118.85
2019-03-25T03:51:09.885Z,111.92
2019-03-25T03:53:36.341Z,117.57
2019-03-25T03:56:12.850Z,118.65
2019-03-25T03:58:32.274Z,123.50
2019-03-25T04:00:58.460Z,113.85
2019-03-25T04:03:24.605Z,113.00
2019-03-25T04:05:50.819Z,106.97
2019-03-25T04:08:17.005Z,112.75
2019-03-25T04:10:43.171Z,118.70
2019-03-25T04:13:09.448Z,107.75
2019-03-25T04:15:35.608Z,117.53
2019-03-25T04:18:01.829Z,112.70
2019-03-25T04:20:28.122Z,112.17
2019-03-25T04:22:54.313Z,110.22
2019-03-25T04:25:20.489Z,114.75
2019-03-25T04:27:46.673Z,107.00
2019-03-25T04:30:13.128Z,112.83
2019-03-25T04:32:39.360Z,116.97
2019-03-25T04:35:05.653Z,108.10
2019-03-25T04:37:31.907Z,104.35
2019-03-25T04:39:58.130Z,110.92
2019-03-25T04:42:24.362Z,103.92
2019-03-25T04:44:50.525Z,110.57
2019-03-25T04:47:16.694Z,107.97
2019-03-25T04:49:42.890Z,112.83
2019-03-25T04:52:09.041Z,110.28
2019-03-25T04:54:36.222Z,105.95
2019-03-25T04:57:02.483Z,101.95
2019-03-25T04:59:28.673Z,113.40
2019-03-25T05:01:54.954Z,104.55
2019-03-25T05:04:21.184Z,97.35
2019-03-25T05:06:47.388Z,109.15
2019-03-25T05:09:13.551Z,115.22
2019-03-25T05:11:39.735Z,118.70
2019-03-25T05:14:06.995Z,118.62
2019-03-25T05:16:33.173Z,129.25
2019-03-25T05:18:59.363Z,122.20
2019-03-25T05:21:25.540Z,126.33
2019-03-25T05:23:51.720Z,121.17
2019-03-25T05:26:17.905Z,121.00
2019-03-25T05:28:44.091Z,127.40
2019-03-25T05:31:10.239Z,128.30
2019-03-25T05:33:36.407Z,125.75
2019-03-25T05:36:02.593Z,122.90
2019-03-25T05:38:28.747Z,123.10
2019-03-25T05:40:56.325Z,124.92
2019-03-25T05:43:22.561Z,120.92
2019-03-25T05:45:48.789Z,116.35
2019-03-25T05:48:15.105Z,115.17
2019-03-25T05:50:41.289Z,110.75
2019-03-25T05:53:07.480Z,105.45
2019-03-25T05:55:34.251Z,96.47
2019-03-25T05:58:00.415Z,104.15
2019-03-25T06:00:31.044Z,99.17
2019-03-25T06:02:57.224Z,98.92
2019-03-25T06:05:23.400Z,101.33
2019-03-25T06:07:49.573Z,94.35
2019-03-25T06:10:15.935Z,81.15
2019-03-25T06:12:42.589Z,90.25
2019-03-25T06:15:09.307Z,85.32
2019-03-25T06:17:35.468Z,83.33
2019-03-25T06:20:02.702Z,70.28
2019-03-25T06:22:28.964Z,72.17
2019-03-25T06:24:55.146Z,73.55
2019-03-25T06:27:21.340Z,64.07
2019-03-25T06:29:47.508Z,65.83
2019-03-25T06:32:13.696Z,56.63
2019-03-25T06:34:40.181Z,59.15
2019-03-25T06:37:06.333Z,51.70
2019-03-25T06:39:32.511Z,52.00
2019-03-25T06:41:58.680Z,46.60
2019-03-25T06:44:24.859Z,50.08
2019-03-25T06:46:51.360Z,48.63
2019-03-25T06:49:17.583Z,48.42
2019-03-25T06:51:45.171Z,50.63
2019-03-25T06:54:11.691Z,47.60
2019-03-25T06:56:37.852Z,44.27
2019-03-25T06:59:04.051Z,47.85
2019-03-25T07:01:30.241Z,46.35
2019-03-25T07:03:56.405Z,42.25
2019-03-25T07:06:22.557Z,38.80
2019-03-25T07:08:48.768Z,44.23
2019-03-25T07:11:15.018Z,40.10
2019-03-25T07:13:41.195Z,37.20
2019-03-25T07:16:07.347Z,37.20
2019-03-25T07:18:33.537Z,40.20
2019-03-25T07:20:59.898Z,34.75
2019-03-25T07:23:26.051Z,35.30
2019-03-25T07:25:52.219Z,38.23
2019-03-25T07:28:18.411Z,33.50
2019-03-25T07:30:44.587Z,37.00
2019-03-25T07:33:10.774Z,35.40
2019-03-25T07:35:36.944Z,35.60
2019-03-25T07:38:03.113Z,32.15
2019-03-25T07:40:29.283Z,35.00
2019-03-25T07:42:55.460Z,32.90
2019-03-25T07:45:21.740Z,33.30
2019-03-25T07:47:47.911Z,33.45
2019-03-25T07:50:14.263Z,31.97
2019-03-25T07:52:40.448Z,33.50
2019-03-25T07:55:06.839Z,36.17
2019-03-25T07:57:33.144Z,27.37
2019-03-25T07:59:59.687Z,32.38
2019-03-25T08:02:25.864Z,34.05
2019-03-25T08:04:52.087Z,28.95
2019-03-25T08:07:18.363Z,33.28
2019-03-25T08:09:44.504Z,30.90
2019-03-25T08:12:10.739Z,30.95
2019-03-25T08:14:36.912Z,28.85
2019-03-25T08:17:03.260Z,32.78
2019-03-25T08:19:29.415Z,32.00
2019-03-25T08:21:56.588Z,32.42
2019-03-25T08:24:22.784Z,34.00
2019-03-25T08:26:49.128Z,31.42
2019-03-25T08:29:16.285Z,32.93
2019-03-25T08:31:42.469Z,32.48
2019-03-25T08:34:08.629Z,29.98
2019-03-25T08:36:34.927Z,28.50
2019-03-25T08:39:01.089Z,31.02
2019-03-25T08:41:27.656Z,26.37
2019-03-25T08:43:53.826Z,29.20
2019-03-25T08:46:20.019Z,26.65
2019-03-25T08:48:46.192Z,32.00
2019-03-25T08:51:13.385Z,23.27
2019-03-25T08:53:39.544Z,28.65
2019-03-25T08:56:05.816Z,23.50
2019-03-25T08:58:32.251Z,27.60
2019-03-25T09:00:59.444Z,25.88
2019-03-25T09:03:25.610Z,29.98
2019-03-25T09:05:51.780Z,26.35
2019-03-25T09:08:18.035Z,31.07
2019-03-25T09:10:44.220Z,26.10
2019-03-25T09:13:10.364Z,26.05
2019-03-25T09:15:36.529Z,23.73
2019-03-25T09:18:02.916Z,24.40
2019-03-25T09:20:29.094Z,26.35
2019-03-25T09:22:55.267Z,23.38
2019-03-25T09:25:21.486Z,24.10
2019-03-25T09:27:47.658Z,25.92
2019-03-25T09:30:20.191Z,24.43
2019-03-25T09:32:46.395Z,27.20
2019-03-25T09:35:12.855Z,20.82
2019-03-25T09:37:39.032Z,22.15
2019-03-25T09:40:06.596Z,20.50
2019-03-25T09:42:35.084Z,21.52
2019-03-25T09:45:01.402Z,25.23
2019-03-25T09:47:27.680Z,18.00
2019-03-25T09:49:53.928Z,24.90
2019-03-25T09:52:20.101Z,23.42
2019-03-25T09:54:46.268Z,20.27
2019-03-25T09:57:12.734Z,18.77
2019-03-25T09:59:38.904Z,20.43
2019-03-25T10:02:05.050Z,18.80
2019-03-25T10:04:31.211Z,22.73
2019-03-25T10:06:57.688Z,22.77
2019-03-25T10:09:23.845Z,18.70
2019-03-25T10:11:50.020Z,16.05
2019-03-25T10:14:16.195Z,14.55
2019-03-25T10:16:42.359Z,16.57
2019-03-25T10:19:10.223Z,18.07
2019-03-25T10:21:36.600Z,14.30
2019-03-25T10:24:02.837Z,18.40
2019-03-25T10:26:29.152Z,16.62
2019-03-25T10:29:05.511Z,17.67
2019-03-25T10:31:31.688Z,16.87
2019-03-25T10:33:57.846Z,15.15
2019-03-25T10:36:24.005Z,17.92
2019-03-25T10:38:50.165Z,13.88
2019-03-25T10:41:17.380Z,13.60
2019-03-25T10:43:43.559Z,9.98
2019-03-25T10:46:12.115Z,14.60
2019-03-25T10:48:38.304Z,13.48
2019-03-25T10:51:04.536Z,11.05
2019-03-25T10:53:30.696Z,12.40
2019-03-25T10:55:56.860Z,9.28
2019-03-25T10:58:23.274Z,11.40
2019-03-25T11:00:49.508Z,6.17
2019-03-25T11:03:15.684Z,6.00
2019-03-25T11:05:41.831Z,8.88
2019-03-25T11:08:08.120Z,8.85
2019-03-25T11:10:34.247Z,7.80
2019-03-25T11:13:00.475Z,10.43
2019-03-25T11:15:26.619Z,7.65
2019-03-25T11:17:52.800Z,6.08
2019-03-25T11:20:19.052Z,6.60
2019-03-25T11:22:45.269Z,8.38
2019-03-25T11:25:12.220Z,6.85
2019-03-25T11:27:38.395Z,7.83
2019-03-25T11:30:10.473Z,8.85
2019-03-25T11:32:36.648Z,6.58
2019-03-25T11:35:05.785Z,5.45
2019-03-25T11:37:32.011Z,7.87
2019-03-25T11:39:58.168Z,10.72
2019-03-25T11:42:24.358Z,8.15
2019-03-25T11:44:50.507Z,6.12
2019-03-25T11:47:16.691Z,5.95
2019-03-25T11:49:44.479Z,4.83
2019-03-25T11:52:11.057Z,5.17
2019-03-25T11:54:37.225Z,8.78
2019-03-25T11:57:03.411Z,9.85
2019-03-25T11:59:29.592Z,6.37
2019-03-25T12:01:55.747Z,6.60
2019-03-25T12:04:21.984Z,6.95
2019-03-25T12:06:48.138Z,10.80
2019-03-25T12:09:14.316Z,3.83
2019-03-25T12:11:40.491Z,6.03
2019-03-25T12:14:06.655Z,4.33
2019-03-25T12:16:32.830Z,4.80
2019-03-25T12:18:59.016Z,5.65
2019-03-25T12:21:25.184Z,8.28
2019-03-25T12:23:51.442Z,8.33
2019-03-25T12:26:17.638Z,6.30
2019-03-25T12:28:43.800Z,7.70
2019-03-25T12:31:09.984Z,6.20
2019-03-25T12:33:36.152Z,4.97
2019-03-25T12:36:02.317Z,6.22
2019-03-25T12:38:29.844Z,7.33
2019-03-25T12:40:55.995Z,5.40
2019-03-25T12:43:23.259Z,9.73
2019-03-25T12:45:49.660Z,6.70
2019-03-25T12:48:15.817Z,6.08
2019-03-25T12:50:41.986Z,6.75
2019-03-25T12:53:08.265Z,6.85
2019-03-25T12:55:34.423Z,5.17
2019-03-25T12:58:00.593Z,6.70
2019-03-25T13:00:33.621Z,5.08
2019-03-25T13:02:59.816Z,7.15
2019-03-25T13:05:26.053Z,6.75
2019-03-25T13:07:52.260Z,7.58
2019-03-25T13:10:18.411Z,7.45
2019-03-25T13:12:44.642Z,6.60
2019-03-25T13:15:11.908Z,5.72
2019-03-25T13:17:38.059Z,5.80
2019-03-25T13:20:04.657Z,6.65
2019-03-25T13:22:30.912Z,4.35
2019-03-25T13:24:57.133Z,8.00
2019-03-25T13:27:23.388Z,8.95
2019-03-25T13:29:52.850Z,10.20
2019-03-25T13:32:17.640Z,8.63
2019-03-25T13:34:43.803Z,13.55
2019-03-25T13:37:10.017Z,9.75
2019-03-25T13:39:36.212Z,9.70
2019-03-25T13:42:03.528Z,8.05
2019-03-25T13:44:29.752Z,8.90
2019-03-25T13:46:56.069Z,9.63
2019-03-25T13:49:22.363Z,8.15
2019-03-25T13:51:48.538Z,13.38
2019-03-25T13:54:14.804Z,6.85
2019-03-25T13:56:42.074Z,7.25
2019-03-25T13:59:08.228Z,6.25
2019-03-25T14:01:34.436Z,11.63
2019-03-25T14:04:00.607Z,4.90
2019-03-25T14:06:26.812Z,6.08
2019-03-25T14:08:53.049Z,6.65
2019-03-25T14:11:19.244Z,4.92
2019-03-25T14:13:49.412Z,3.83
2019-03-25T14:16:13.489Z,3.62
2019-03-25T14:18:39.656Z,4.97
2019-03-25T14:21:06.345Z,4.95
2019-03-25T14:23:32.528Z,6.53
2019-03-25T14:25:58.688Z,6.90
2019-03-25T14:28:24.900Z,7.60
2019-03-25T14:30:51.089Z,5.60
2019-03-25T14:33:17.244Z,4.33
2019-03-25T14:35:43.421Z,5.50
2019-03-25T14:38:09.613Z,6.87
2019-03-25T14:40:35.823Z,9.28
2019-03-25T14:43:02.086Z,4.47
2019-03-25T14:45:28.264Z,7.05
2019-03-25T14:47:54.416Z,6.60
2019-03-25T14:50:20.598Z,7.35
2019-03-25T14:52:46.759Z,5.53
2019-03-25T14:55:13.071Z,9.53
2019-03-25T14:57:39.256Z,8.60
2019-03-25T15:00:07.030Z,15.68
2019-03-25T15:02:33.616Z,8.53
2019-03-25T15:04:59.776Z,11.28
2019-03-25T15:07:25.934Z,8.83
2019-03-25T15:09:52.116Z,9.23
2019-03-25T15:12:18.304Z,8.70
2019-03-25T15:14:44.749Z,7.45
2019-03-25T15:17:10.901Z,6.37
2019-03-25T15:19:37.051Z,6.03
2019-03-25T15:22:03.338Z,6.20
2019-03-25T15:24:29.510Z,4.85
2019-03-25T15:26:55.668Z,6.17
2019-03-25T15:29:21.856Z,4.00
2019-03-25T15:31:48.016Z,4.83
2019-03-25T15:34:14.171Z,3.62
2019-03-25T15:36:40.392Z,3.70
2019-03-25T15:39:06.924Z,4.22
2019-03-25T15:41:33.271Z,5.50
2019-03-25T15:43:59.433Z,5.50
2019-03-25T15:46:25.592Z,5.85
2019-03-25T15:48:51.835Z,5.75
2019-03-25T15:51:18.008Z,5.33
2019-03-25T15:53:44.160Z,5.92
2019-03-25T15:56:12.368Z,6.00
2019-03-25T15:58:38.547Z,5.62
2019-03-25T16:01:04.807Z,5.80
2019-03-25T16:03:30.976Z,7.35
2019-03-25T16:05:57.391Z,7.72
2019-03-25T16:08:23.612Z,5.42
2019-03-25T16:10:51.665Z,4.42
2019-03-25T16:13:17.924Z,6.83
2019-03-25T16:15:44.163Z,9.00
2019-03-25T16:18:16.959Z,6.33
2019-03-25T16:20:43.187Z,9.58
2019-03-25T16:23:09.425Z,6.17
2019-03-25T16:25:35.971Z,6.25
2019-03-25T16:28:03.128Z,8.50
2019-03-25T16:30:29.411Z,10.05
2019-03-25T16:32:55.569Z,8.10
2019-03-25T16:35:21.734Z,6.78
2019-03-25T16:37:47.917Z,9.38
2019-03-25T16:40:14.107Z,9.33
2019-03-25T16:42:40.347Z,9.88
2019-03-25T16:45:06.673Z,7.55
2019-03-25T16:47:32.868Z,6.65
2019-03-25T16:49:59.052Z,8.75
2019-03-25T16:52:25.216Z,4.25
2019-03-25T16:54:51.485Z,6.83
2019-03-25T16:57:17.660Z,10.28
2019-03-25T16:59:43.840Z,6.17
2019-03-25T17:02:10.020Z,3.62
2019-03-25T17:04:36.180Z,5.12
2019-03-25T17:07:02.405Z,5.17
2019-03-25T17:09:28.864Z,6.42
2019-03-25T17:11:55.083Z,6.58
2019-03-25T17:14:21.252Z,8.65
2019-03-25T17:16:47.749Z,4.17
2019-03-25T17:19:13.919Z,4.05
2019-03-25T17:21:40.116Z,4.72
2019-03-25T17:24:06.339Z,5.33
2019-03-25T17:26:41.969Z,4.78
2019-03-25T17:29:00.628Z,4.42
2019-03-25T17:31:27.067Z,4.78
2019-03-25T17:33:53.301Z,4.50
2019-03-25T17:36:19.459Z,12.18
2019-03-25T17:38:45.632Z,8.05
2019-03-25T17:41:11.776Z,5.70
2019-03-25T17:43:37.986Z,5.83
2019-03-25T17:46:04.243Z,8.43
2019-03-25T17:48:30.415Z,5.10
2019-03-25T17:50:56.608Z,7.67
2019-03-25T17:53:22.868Z,10.43
2019-03-25T17:55:49.013Z,7.65
2019-03-25T17:58:15.351Z,6.92
2019-03-25T18:00:47.971Z,9.85
2019-03-25T18:03:15.344Z,6.55
2019-03-25T18:05:42.820Z,5.12
2019-03-25T18:08:08.992Z,9.50
2019-03-25T18:10:35.343Z,7.97
2019-03-25T18:13:02.923Z,10.82
2019-03-25T18:15:29.159Z,6.25
2019-03-25T18:17:55.382Z,9.55
2019-03-25T18:20:21.525Z,6.87
2019-03-25T18:22:47.912Z,6.50
2019-03-25T18:25:14.110Z,6.28
2019-03-25T18:27:40.347Z,6.00
2019-03-25T18:30:07.512Z,8.48
2019-03-25T18:32:33.723Z,10.28
2019-03-25T18:35:00.148Z,6.65
2019-03-25T18:37:26.685Z,8.60
2019-03-25T18:39:53.220Z,10.58
2019-03-25T18:42:19.464Z,5.60
2019-03-25T18:44:45.648Z,7.65
2019-03-25T18:47:11.828Z,5.80
2019-03-25T18:49:38.012Z,2.25
2019-03-25T18:52:04.189Z,2.70
2019-03-25T18:54:30.361Z,3.25
2019-03-25T18:56:56.639Z,4.80
2019-03-25T18:59:22.880Z,5.62
2019-03-25T19:01:54.535Z,6.37
2019-03-25T19:04:17.440Z,4.70
2019-03-25T19:06:45.001Z,4.85
2019-03-25T19:09:11.178Z,6.83
2019-03-25T19:11:37.471Z,4.62
2019-03-25T19:14:03.612Z,8.23
2019-03-25T19:16:29.787Z,5.45
2019-03-25T19:18:57.171Z,6.87
2019-03-25T19:21:23.411Z,5.22
2019-03-25T19:23:49.563Z,6.25
2019-03-25T19:26:15.746Z,6.00
2019-03-25T19:28:42.012Z,4.72
2019-03-25T19:31:08.186Z,5.95
2019-03-25T19:33:34.422Z,5.30
2019-03-25T19:36:00.669Z,4.78
2019-03-25T19:38:26.837Z,6.15
2019-03-25T19:40:53.338Z,5.72
2019-03-25T19:43:19.606Z,5.62
2019-03-25T19:45:45.804Z,6.28
2019-03-25T19:48:11.975Z,6.78
2019-03-25T19:50:38.123Z,5.62
2019-03-25T19:53:04.362Z,6.60
2019-03-25T19:55:32.169Z,6.72
2019-03-25T19:57:58.324Z,4.50
2019-03-25T20:00:33.312Z,4.72
2019-03-25T20:02:59.563Z,6.03
2019-03-25T20:05:25.740Z,7.00
2019-03-25T20:07:52.006Z,5.80
2019-03-25T20:10:32.198Z,11.80
2019-03-25T20:12:59.129Z,4.40
2019-03-25T20:15:25.535Z,4.53
2019-03-25T20:17:51.695Z,9.20
2019-03-25T20:20:17.942Z,4.67
2019-03-25T20:22:44.183Z,4.60
2019-03-25T20:25:11.745Z,4.87
2019-03-25T20:27:39.915Z,3.75
2019-03-25T20:30:09.599Z,5.47
2019-03-25T20:32:35.888Z,3.85
2019-03-25T20:35:04.007Z,3.87
2019-03-25T20:37:30.236Z,5.90
2019-03-25T20:39:56.442Z,4.40
2019-03-25T20:42:22.695Z,4.80
2019-03-25T20:44:49.912Z,3.92
2019-03-25T20:47:16.203Z,4.95
2019-03-25T20:49:42.490Z,4.42
2019-03-25T20:52:08.665Z,4.53
2019-03-25T20:54:34.800Z,6.65
2019-03-25T20:57:00.991Z,4.67
2019-03-25T20:59:27.132Z,4.75
2019-03-25T21:01:54.547Z,8.00
2019-03-25T21:04:20.813Z,5.67
2019-03-25T21:06:47.087Z,7.28
2019-03-25T21:09:13.340Z,8.38
2019-03-25T21:11:39.536Z,8.55
2019-03-25T21:14:05.807Z,10.40
2019-03-25T21:16:31.994Z,9.25
2019-03-25T21:18:58.242Z,11.97
2019-03-25T21:21:24.421Z,9.45
2019-03-25T21:23:50.743Z,10.13
2019-03-25T21:26:16.944Z,10.60
2019-03-25T21:28:43.319Z,11.28
2019-03-25T21:31:09.629Z,12.70
2019-03-25T21:33:35.885Z,10.90
2019-03-25T21:36:02.037Z,8.80
2019-03-25T21:38:28.200Z,13.95
2019-03-25T21:40:54.472Z,11.90
2019-03-25T21:43:20.628Z,10.38
2019-03-25T21:45:46.885Z,13.70
2019-03-25T21:48:13.352Z,12.73
2019-03-25T21:50:39.536Z,10.58
2019-03-25T21:53:05.719Z,15.10
2019-03-25T21:55:46.544Z,10.60
2019-03-25T21:58:12.835Z,10.35
2019-03-25T22:00:41.061Z,14.28
2019-03-25T22:03:12.008Z,11.73
2019-03-25T22:05:37.492Z,12.93
2019-03-25T22:08:04.100Z,10.40
2019-03-25T22:10:30.354Z,14.05
2019-03-25T22:13:03.554Z,11.60
2019-03-25T22:15:29.729Z,10.53
2019-03-25T22:17:55.931Z,10.58
2019-03-25T22:20:22.105Z,11.18
2019-03-25T22:22:48.296Z,10.53
2019-03-25T22:25:14.483Z,11.18
2019-03-25T22:27:41.522Z,14.43
2019-03-25T22:30:08.206Z,13.40
2019-03-25T22:32:34.365Z,10.38
2019-03-25T22:35:00.580Z,11.10
2019-03-25T22:37:26.744Z,11.53
2019-03-25T22:39:52.921Z,10.40
2019-03-25T22:42:20.210Z,10.30
2019-03-25T22:44:46.389Z,10.50
2019-03-25T22:47:12.572Z,11.83
2019-03-25T22:49:38.731Z,11.80
2019-03-25T22:52:04.929Z,9.95
2019-03-25T22:54:31.190Z,11.80
2019-03-25T22:56:57.402Z,13.75
2019-03-25T22:59:23.619Z,9.68
2019-03-25T23:01:49.813Z,11.15
2019-03-25T23:04:16.001Z,13.58
2019-03-25T23:06:42.220Z,11.57
2019-03-25T23:09:08.385Z,11.55
2019-03-25T23:11:34.857Z,9.33
2019-03-25T23:14:01.047Z,10.82
2019-03-25T23:16:27.232Z,12.33
2019-03-25T23:18:53.645Z,9.70
2019-03-25T23:21:19.804Z,9.28
2019-03-25T23:23:45.972Z,11.75
2019-03-25T23:26:12.289Z,9.10
2019-03-25T23:28:38.489Z,10.32
2019-03-25T23:31:04.804Z,10.82
2019-03-25T23:33:31.063Z,10.15
2019-03-25T23:35:58.329Z,10.10
2019-03-25T23:38:25.512Z,12.98
2019-03-25T23:40:51.728Z,11.40
2019-03-25T23:43:17.940Z,10.55
2019-03-25T23:45:44.144Z,11.68
2019-03-25T23:48:10.345Z,13.18
2019-03-25T23:50:36.547Z,9.38
2019-03-25T23:53:03.720Z,9.23
2019-03-25T23:55:32.630Z,11.22
2019-03-25T23:57:58.855Z,15.80
